sensor_id;sensor_type;location;lat;lon;timestamp;temperature;humidity
26803;DHT22;14378;51.796;5.808;2022-10-30T00:13:30;16.70;99.90
26803;DHT22;14378;51.796;5.808;2022-10-30T00:15:32;16.40;99.90
26803;DHT22;14378;51.796;5.808;2022-10-30T00:17:33;16.40;99.90
26803;DHT22;14378;51.796;5.808;2022-10-30T00:19:34;16.50;99.90
26803;DHT22;14378;51.796;5.808;2022-10-30T00:21:37;16.40;99.90
26803;DHT22;14378;51.796;5.808;2022-10-30T00:23:38;16.50;99.90
26803;DHT22;14378;51.796;5.808;2022-10-30T00:25:44;16.50;99.90
26803;DHT22;14378;51.796;5.808;2022-10-30T00:27:45;16.50;99.90
26803;DHT22;14378;51.796;5.808;2022-10-30T00:29:47;16.40;99.90
26803;DHT22;14378;51.796;5.808;2022-10-30T00:31:48;16.40;99.90
26803;DHT22;14378;51.796;5.808;2022-10-30T00:33:51;16.40;99.90
26803;DHT22;14378;51.796;5.808;2022-10-30T00:35:54;16.40;99.90
26803;DHT22;14378;51.796;5.808;2022-10-30T00:37:55;16.40;99.90
26803;DHT22;14378;51.796;5.808;2022-10-30T00:39:57;16.40;99.90
26803;DHT22;14378;51.796;5.808;2022-10-30T00:41:58;16.30;99.90
26803;DHT22;14378;51.796;5.808;2022-10-30T00:46:41;16.30;99.90
26803;DHT22;14378;51.796;5.808;2022-10-30T00:48:50;16.20;99.90
26803;DHT22;14378;51.796;5.808;2022-10-30T00:50:52;16.20;99.90
26803;DHT22;14378;51.796;5.808;2022-10-30T00:53:02;16.20;99.90
26803;DHT22;14378;51.796;5.808;2022-10-30T00:55:10;16.20;99.90
26803;DHT22;14378;51.796;5.808;2022-10-30T00:57:13;16.20;99.90
26803;DHT22;14378;51.796;5.808;2022-10-30T00:59:25;16.10;99.90
26803;DHT22;14378;51.796;5.808;2022-10-30T01:03:10;16.10;99.90
26803;DHT22;14378;51.796;5.808;2022-10-30T01:05:16;16.10;99.90
26803;DHT22;14378;51.796;5.808;2022-10-30T01:07:18;16.00;99.90
26803;DHT22;14378;51.796;5.808;2022-10-30T01:09:19;16.00;99.90
26803;DHT22;14378;51.796;5.808;2022-10-30T01:11:21;16.00;99.90
26803;DHT22;14378;51.796;5.808;2022-10-30T01:13:22;16.00;99.90
26803;DHT22;14378;51.796;5.808;2022-10-30T01:15:32;15.90;99.90
26803;DHT22;14378;51.796;5.808;2022-10-30T01:18:16;15.90;99.90
26803;DHT22;14378;51.796;5.808;2022-10-30T01:30:08;15.80;99.90
26803;DHT22;14378;51.796;5.808;2022-10-30T01:34:50;15.70;99.90
26803;DHT22;14378;51.796;5.808;2022-10-30T01:37:21;15.70;99.90
26803;DHT22;14378;51.796;5.808;2022-10-30T01:39:28;15.60;99.90
26803;DHT22;14378;51.796;5.808;2022-10-30T01:41:30;15.60;99.90
26803;DHT22;14378;51.796;5.808;2022-10-30T01:43:34;15.50;99.90
26803;DHT22;14378;51.796;5.808;2022-10-30T01:51:18;15.40;99.90
26803;DHT22;14378;51.796;5.808;2022-10-30T01:59:51;15.30;99.90
26803;DHT22;14378;51.796;5.808;2022-10-30T02:01:55;15.30;99.90
26803;DHT22;14378;51.796;5.808;2022-10-30T02:03:57;15.20;99.90
26803;DHT22;14378;51.796;5.808;2022-10-30T02:06:00;15.30;99.90
26803;DHT22;14378;51.796;5.808;2022-10-30T02:08:02;15.20;99.90
26803;DHT22;14378;51.796;5.808;2022-10-30T02:10:05;15.20;99.90
26803;DHT22;14378;51.796;5.808;2022-10-30T02:12:07;15.10;99.90
26803;DHT22;14378;51.796;5.808;2022-10-30T02:14:10;15.10;99.90
26803;DHT22;14378;51.796;5.808;2022-10-30T02:16:12;15.10;99.90
26803;DHT22;14378;51.796;5.808;2022-10-30T02:18:16;15.00;99.90
26803;DHT22;14378;51.796;5.808;2022-10-30T02:20:18;15.00;99.90
26803;DHT22;14378;51.796;5.808;2022-10-30T02:22:20;15.00;99.90
26803;DHT22;14378;51.796;5.808;2022-10-30T02:24:21;14.90;99.90
26803;DHT22;14378;51.796;5.808;2022-10-30T02:26:25;14.90;99.90
26803;DHT22;14378;51.796;5.808;2022-10-30T02:28:27;14.80;99.90
26803;DHT22;14378;51.796;5.808;2022-10-30T02:30:29;14.80;99.90
26803;DHT22;14378;51.796;5.808;2022-10-30T02:32:36;14.80;99.90
26803;DHT22;14378;51.796;5.808;2022-10-30T02:34:36;14.80;99.90
26803;DHT22;14378;51.796;5.808;2022-10-30T02:36:38;14.80;99.90
26803;DHT22;14378;51.796;5.808;2022-10-30T02:38:41;14.70;99.90
26803;DHT22;14378;51.796;5.808;2022-10-30T02:40:42;14.70;99.90
26803;DHT22;14378;51.796;5.808;2022-10-30T02:42:54;14.70;99.90
26803;DHT22;14378;51.796;5.808;2022-10-30T02:44:58;14.70;99.90
26803;DHT22;14378;51.796;5.808;2022-10-30T02:47:00;14.70;99.90
26803;DHT22;14378;51.796;5.808;2022-10-30T02:49:01;14.70;99.90
26803;DHT22;14378;51.796;5.808;2022-10-30T02:51:03;14.70;99.90
26803;DHT22;14378;51.796;5.808;2022-10-30T02:53:04;14.70;99.90
26803;DHT22;14378;51.796;5.808;2022-10-30T02:55:07;14.70;99.90
26803;DHT22;14378;51.796;5.808;2022-10-30T02:57:09;14.70;99.90
26803;DHT22;14378;51.796;5.808;2022-10-30T02:59:12;14.70;99.90
26803;DHT22;14378;51.796;5.808;2022-10-30T03:01:16;14.70;99.90
26803;DHT22;14378;51.796;5.808;2022-10-30T03:03:18;14.80;99.90
26803;DHT22;14378;51.796;5.808;2022-10-30T03:05:19;14.70;99.90
26803;DHT22;14378;51.796;5.808;2022-10-30T03:07:21;14.70;99.90
26803;DHT22;14378;51.796;5.808;2022-10-30T03:09:23;14.70;99.90
26803;DHT22;14378;51.796;5.808;2022-10-30T03:11:24;14.70;99.90
26803;DHT22;14378;51.796;5.808;2022-10-30T03:13:30;14.70;99.90
26803;DHT22;14378;51.796;5.808;2022-10-30T03:15:31;14.70;99.90
26803;DHT22;14378;51.796;5.808;2022-10-30T03:17:33;14.70;99.90
26803;DHT22;14378;51.796;5.808;2022-10-30T03:19:34;14.70;99.90
26803;DHT22;14378;51.796;5.808;2022-10-30T03:21:36;14.70;99.90
26803;DHT22;14378;51.796;5.808;2022-10-30T03:23:37;14.70;99.90
26803;DHT22;14378;51.796;5.808;2022-10-30T03:25:38;14.70;99.90
26803;DHT22;14378;51.796;5.808;2022-10-30T03:27:39;14.70;99.90
26803;DHT22;14378;51.796;5.808;2022-10-30T03:29:40;14.70;99.90
26803;DHT22;14378;51.796;5.808;2022-10-30T03:31:41;14.70;99.90
26803;DHT22;14378;51.796;5.808;2022-10-30T03:33:47;14.60;99.90
26803;DHT22;14378;51.796;5.808;2022-10-30T03:35:49;14.60;99.90
26803;DHT22;14378;51.796;5.808;2022-10-30T03:37:50;14.60;99.90
26803;DHT22;14378;51.796;5.808;2022-10-30T03:39:53;14.50;99.90
26803;DHT22;14378;51.796;5.808;2022-10-30T03:41:56;14.50;99.90
26803;DHT22;14378;51.796;5.808;2022-10-30T03:43:57;14.50;99.90
26803;DHT22;14378;51.796;5.808;2022-10-30T03:45:58;14.40;99.90
26803;DHT22;14378;51.796;5.808;2022-10-30T03:48:04;14.40;99.90
26803;DHT22;14378;51.796;5.808;2022-10-30T03:50:06;14.40;99.90
26803;DHT22;14378;51.796;5.808;2022-10-30T03:52:08;14.30;99.90
26803;DHT22;14378;51.796;5.808;2022-10-30T03:54:10;14.30;99.90
26803;DHT22;14378;51.796;5.808;2022-10-30T03:56:10;14.30;99.90
26803;DHT22;14378;51.796;5.808;2022-10-30T03:58:19;14.30;99.90
26803;DHT22;14378;51.796;5.808;2022-10-30T04:00:20;14.30;99.90
26803;DHT22;14378;51.796;5.808;2022-10-30T04:02:31;14.30;99.90
26803;DHT22;14378;51.796;5.808;2022-10-30T04:04:35;14.20;99.90
26803;DHT22;14378;51.796;5.808;2022-10-30T04:06:42;14.20;99.90
26803;DHT22;14378;51.796;5.808;2022-10-30T04:08:43;14.20;99.90
26803;DHT22;14378;51.796;5.808;2022-10-30T04:10:46;14.20;99.90
26803;DHT22;14378;51.796;5.808;2022-10-30T04:12:51;14.10;99.90
26803;DHT22;14378;51.796;5.808;2022-10-30T04:14:52;14.10;99.90
26803;DHT22;14378;51.796;5.808;2022-10-30T04:16:53;14.10;99.90
26803;DHT22;14378;51.796;5.808;2022-10-30T04:18:54;14.10;99.90
26803;DHT22;14378;51.796;5.808;2022-10-30T04:20:58;14.10;99.90
26803;DHT22;14378;51.796;5.808;2022-10-30T04:23:01;14.10;99.90
26803;DHT22;14378;51.796;5.808;2022-10-30T04:25:03;14.10;99.90
26803;DHT22;14378;51.796;5.808;2022-10-30T04:27:06;14.00;99.90
26803;DHT22;14378;51.796;5.808;2022-10-30T04:29:08;14.00;99.90
26803;DHT22;14378;51.796;5.808;2022-10-30T04:31:09;14.00;99.90
26803;DHT22;14378;51.796;5.808;2022-10-30T04:33:11;14.00;99.90
26803;DHT22;14378;51.796;5.808;2022-10-30T04:35:15;14.00;99.90
26803;DHT22;14378;51.796;5.808;2022-10-30T04:37:17;14.00;99.90
26803;DHT22;14378;51.796;5.808;2022-10-30T04:39:18;14.00;99.90
26803;DHT22;14378;51.796;5.808;2022-10-30T04:41:22;14.00;99.90
26803;DHT22;14378;51.796;5.808;2022-10-30T04:43:35;14.00;99.90
26803;DHT22;14378;51.796;5.808;2022-10-30T04:45:39;13.90;99.90
26803;DHT22;14378;51.796;5.808;2022-10-30T04:47:41;13.90;99.90
26803;DHT22;14378;51.796;5.808;2022-10-30T04:49:42;13.90;99.90
26803;DHT22;14378;51.796;5.808;2022-10-30T04:51:44;13.90;99.90
26803;DHT22;14378;51.796;5.808;2022-10-30T04:53:48;13.90;99.90
26803;DHT22;14378;51.796;5.808;2022-10-30T04:55:53;13.90;99.90
26803;DHT22;14378;51.796;5.808;2022-10-30T04:57:57;13.90;99.90
26803;DHT22;14378;51.796;5.808;2022-10-30T04:59:58;13.90;99.90
26803;DHT22;14378;51.796;5.808;2022-10-30T05:02:01;13.80;99.90
26803;DHT22;14378;51.796;5.808;2022-10-30T05:04:02;13.80;99.90
26803;DHT22;14378;51.796;5.808;2022-10-30T05:06:12;13.80;99.90
26803;DHT22;14378;51.796;5.808;2022-10-30T05:08:15;13.80;99.90
26803;DHT22;14378;51.796;5.808;2022-10-30T05:10:17;13.70;99.90
26803;DHT22;14378;51.796;5.808;2022-10-30T05:12:18;13.70;99.90
26803;DHT22;14378;51.796;5.808;2022-10-30T05:14:31;13.70;99.90
26803;DHT22;14378;51.796;5.808;2022-10-30T05:16:32;13.70;99.90
26803;DHT22;14378;51.796;5.808;2022-10-30T05:18:36;13.70;99.90
26803;DHT22;14378;51.796;5.808;2022-10-30T05:20:37;13.80;99.90
26803;DHT22;14378;51.796;5.808;2022-10-30T05:22:38;13.80;99.90
26803;DHT22;14378;51.796;5.808;2022-10-30T05:24:39;13.70;99.90
26803;DHT22;14378;51.796;5.808;2022-10-30T05:26:40;13.80;99.90
26803;DHT22;14378;51.796;5.808;2022-10-30T05:28:48;13.70;99.90
26803;DHT22;14378;51.796;5.808;2022-10-30T05:30:52;13.70;99.90
26803;DHT22;14378;51.796;5.808;2022-10-30T05:33:14;13.70;99.90
26803;DHT22;14378;51.796;5.808;2022-10-30T05:35:19;13.70;99.90
26803;DHT22;14378;51.796;5.808;2022-10-30T05:37:22;13.60;99.90
26803;DHT22;14378;51.796;5.808;2022-10-30T05:39:23;13.60;99.90
26803;DHT22;14378;51.796;5.808;2022-10-30T05:41:25;13.60;99.90
26803;DHT22;14378;51.796;5.808;2022-10-30T05:43:27;13.60;99.90
26803;DHT22;14378;51.796;5.808;2022-10-30T05:45:28;13.60;99.90
26803;DHT22;14378;51.796;5.808;2022-10-30T05:47:31;13.60;99.90
26803;DHT22;14378;51.796;5.808;2022-10-30T05:49:32;13.60;99.90
26803;DHT22;14378;51.796;5.808;2022-10-30T05:51:35;13.60;99.90
26803;DHT22;14378;51.796;5.808;2022-10-30T05:53:39;13.60;99.90
26803;DHT22;14378;51.796;5.808;2022-10-30T05:55:43;13.60;99.90
26803;DHT22;14378;51.796;5.808;2022-10-30T05:57:47;13.60;99.90
26803;DHT22;14378;51.796;5.808;2022-10-30T05:59:49;13.60;99.90
26803;DHT22;14378;51.796;5.808;2022-10-30T06:01:50;13.60;99.90
26803;DHT22;14378;51.796;5.808;2022-10-30T06:03:52;13.60;99.90
26803;DHT22;14378;51.796;5.808;2022-10-30T06:05:53;13.50;99.90
26803;DHT22;14378;51.796;5.808;2022-10-30T06:07:54;13.50;99.90
26803;DHT22;14378;51.796;5.808;2022-10-30T06:09:56;13.50;99.90
26803;DHT22;14378;51.796;5.808;2022-10-30T06:12:33;13.50;99.90
26803;DHT22;14378;51.796;5.808;2022-10-30T06:15:00;13.40;99.90
26803;DHT22;14378;51.796;5.808;2022-10-30T06:17:06;13.40;99.90
26803;DHT22;14378;51.796;5.808;2022-10-30T06:19:30;13.40;99.90
26803;DHT22;14378;51.796;5.808;2022-10-30T06:21:50;13.40;99.90
26803;DHT22;14378;51.796;5.808;2022-10-30T06:24:01;13.40;99.90
26803;DHT22;14378;51.796;5.808;2022-10-30T06:26:38;13.40;99.90
26803;DHT22;14378;51.796;5.808;2022-10-30T06:28:43;13.40;99.90
26803;DHT22;14378;51.796;5.808;2022-10-30T06:30:48;13.40;99.90
26803;DHT22;14378;51.796;5.808;2022-10-30T06:32:49;13.40;99.90
26803;DHT22;14378;51.796;5.808;2022-10-30T06:34:50;13.40;99.90
26803;DHT22;14378;51.796;5.808;2022-10-30T06:36:53;13.30;99.90
26803;DHT22;14378;51.796;5.808;2022-10-30T06:38:56;13.30;99.90
26803;DHT22;14378;51.796;5.808;2022-10-30T06:41:00;13.20;99.90
26803;DHT22;14378;51.796;5.808;2022-10-30T06:43:37;13.20;99.90
26803;DHT22;14378;51.796;5.808;2022-10-30T06:45:44;13.20;99.90
26803;DHT22;14378;51.796;5.808;2022-10-30T06:47:46;13.20;99.90
26803;DHT22;14378;51.796;5.808;2022-10-30T06:49:47;13.10;99.90
26803;DHT22;14378;51.796;5.808;2022-10-30T06:51:50;13.10;99.90
26803;DHT22;14378;51.796;5.808;2022-10-30T06:53:51;13.10;99.90
26803;DHT22;14378;51.796;5.808;2022-10-30T06:56:11;13.10;99.90
26803;DHT22;14378;51.796;5.808;2022-10-30T06:58:44;13.10;99.90
26803;DHT22;14378;51.796;5.808;2022-10-30T07:03:04;13.10;99.90
26803;DHT22;14378;51.796;5.808;2022-10-30T07:05:12;13.00;99.90
26803;DHT22;14378;51.796;5.808;2022-10-30T07:07:14;13.00;99.90
26803;DHT22;14378;51.796;5.808;2022-10-30T07:09:15;13.00;99.90
26803;DHT22;14378;51.796;5.808;2022-10-30T07:11:17;13.00;99.90
26803;DHT22;14378;51.796;5.808;2022-10-30T07:13:42;13.00;99.90
26803;DHT22;14378;51.796;5.808;2022-10-30T07:16:00;13.00;99.90
26803;DHT22;14378;51.796;5.808;2022-10-30T07:18:12;13.00;99.90
26803;DHT22;14378;51.796;5.808;2022-10-30T07:20:16;13.00;99.90
26803;DHT22;14378;51.796;5.808;2022-10-30T07:22:18;13.00;99.90
26803;DHT22;14378;51.796;5.808;2022-10-30T07:24:24;13.00;99.90
26803;DHT22;14378;51.796;5.808;2022-10-30T07:26:44;13.00;99.90
26803;DHT22;14378;51.796;5.808;2022-10-30T07:29:07;13.10;99.90
26803;DHT22;14378;51.796;5.808;2022-10-30T07:31:22;13.10;99.90
26803;DHT22;14378;51.796;5.808;2022-10-30T07:33:27;13.10;99.90
26803;DHT22;14378;51.796;5.808;2022-10-30T07:35:48;13.20;99.90
26803;DHT22;14378;51.796;5.808;2022-10-30T07:38:12;13.20;99.90
26803;DHT22;14378;51.796;5.808;2022-10-30T07:40:26;13.30;99.90
26803;DHT22;14378;51.796;5.808;2022-10-30T07:42:34;13.30;99.90
26803;DHT22;14378;51.796;5.808;2022-10-30T07:45:04;13.30;99.90
26803;DHT22;14378;51.796;5.808;2022-10-30T07:47:24;13.40;99.90
26803;DHT22;14378;51.796;5.808;2022-10-30T07:49:44;13.40;99.90
26803;DHT22;14378;51.796;5.808;2022-10-30T07:51:47;13.40;99.90
26803;DHT22;14378;51.796;5.808;2022-10-30T07:53:49;13.50;99.90
26803;DHT22;14378;51.796;5.808;2022-10-30T07:55:51;13.50;99.90
26803;DHT22;14378;51.796;5.808;2022-10-30T07:58:31;13.50;99.90
26803;DHT22;14378;51.796;5.808;2022-10-30T08:01:01;13.50;99.90
26803;DHT22;14378;51.796;5.808;2022-10-30T08:03:09;13.60;99.90
26803;DHT22;14378;51.796;5.808;2022-10-30T08:05:40;13.70;99.90
26803;DHT22;14378;51.796;5.808;2022-10-30T08:07:45;13.70;99.90
26803;DHT22;14378;51.796;5.808;2022-10-30T08:09:48;13.70;99.90
26803;DHT22;14378;51.796;5.808;2022-10-30T08:11:51;13.80;99.90
26803;DHT22;14378;51.796;5.808;2022-10-30T08:13:52;13.80;99.90
26803;DHT22;14378;51.796;5.808;2022-10-30T08:15:57;13.90;99.90
26803;DHT22;14378;51.796;5.808;2022-10-30T08:18:03;13.90;99.90
26803;DHT22;14378;51.796;5.808;2022-10-30T08:20:07;14.00;99.90
26803;DHT22;14378;51.796;5.808;2022-10-30T08:22:10;14.00;99.90
26803;DHT22;14378;51.796;5.808;2022-10-30T08:24:14;14.10;99.90
26803;DHT22;14378;51.796;5.808;2022-10-30T08:26:19;14.20;99.90
26803;DHT22;14378;51.796;5.808;2022-10-30T08:28:20;14.20;99.90
26803;DHT22;14378;51.796;5.808;2022-10-30T08:30:26;14.30;99.90
26803;DHT22;14378;51.796;5.808;2022-10-30T08:32:33;14.40;99.90
26803;DHT22;14378;51.796;5.808;2022-10-30T08:34:56;14.40;99.90
26803;DHT22;14378;51.796;5.808;2022-10-30T08:37:04;14.50;99.90
26803;DHT22;14378;51.796;5.808;2022-10-30T08:39:09;14.60;99.90
26803;DHT22;14378;51.796;5.808;2022-10-30T08:41:21;14.80;99.90
26803;DHT22;14378;51.796;5.808;2022-10-30T08:43:25;14.80;99.90
26803;DHT22;14378;51.796;5.808;2022-10-30T08:45:32;14.90;99.90
26803;DHT22;14378;51.796;5.808;2022-10-30T08:47:47;15.00;99.90
26803;DHT22;14378;51.796;5.808;2022-10-30T08:49:58;15.10;99.90
26803;DHT22;14378;51.796;5.808;2022-10-30T08:52:06;15.20;99.90
26803;DHT22;14378;51.796;5.808;2022-10-30T08:54:10;15.30;99.90
26803;DHT22;14378;51.796;5.808;2022-10-30T08:56:11;15.40;99.90
26803;DHT22;14378;51.796;5.808;2022-10-30T08:58:39;15.50;99.90
26803;DHT22;14378;51.796;5.808;2022-10-30T09:00:40;15.60;99.90
26803;DHT22;14378;51.796;5.808;2022-10-30T09:02:47;15.70;99.90
26803;DHT22;14378;51.796;5.808;2022-10-30T09:05:17;15.80;99.90
26803;DHT22;14378;51.796;5.808;2022-10-30T09:07:48;16.00;99.90
26803;DHT22;14378;51.796;5.808;2022-10-30T09:10:08;16.10;99.90
26803;DHT22;14378;51.796;5.808;2022-10-30T09:12:12;16.20;99.90
26803;DHT22;14378;51.796;5.808;2022-10-30T09:14:17;16.30;99.90
26803;DHT22;14378;51.796;5.808;2022-10-30T09:16:19;16.40;99.90
26803;DHT22;14378;51.796;5.808;2022-10-30T09:18:20;16.50;99.90
26803;DHT22;14378;51.796;5.808;2022-10-30T09:20:22;16.70;99.90
26803;DHT22;14378;51.796;5.808;2022-10-30T09:22:23;16.80;99.90
26803;DHT22;14378;51.796;5.808;2022-10-30T09:24:25;17.00;99.90
26803;DHT22;14378;51.796;5.808;2022-10-30T09:26:26;17.10;99.90
26803;DHT22;14378;51.796;5.808;2022-10-30T09:28:41;17.30;99.90
26803;DHT22;14378;51.796;5.808;2022-10-30T09:31:02;17.50;99.90
26803;DHT22;14378;51.796;5.808;2022-10-30T09:33:05;17.70;99.90
26803;DHT22;14378;51.796;5.808;2022-10-30T09:35:28;17.90;99.90
26803;DHT22;14378;51.796;5.808;2022-10-30T09:37:33;18.10;99.90
26803;DHT22;14378;51.796;5.808;2022-10-30T09:39:42;18.20;99.90
26803;DHT22;14378;51.796;5.808;2022-10-30T09:42:46;18.40;99.90
26803;DHT22;14378;51.796;5.808;2022-10-30T09:47:17;18.80;99.90
26803;DHT22;14378;51.796;5.808;2022-10-30T09:54:48;19.40;99.90
26803;DHT22;14378;51.796;5.808;2022-10-30T09:57:10;19.60;99.90
26803;DHT22;14378;51.796;5.808;2022-10-30T10:06:42;20.40;99.90
26803;DHT22;14378;51.796;5.808;2022-10-30T10:08:59;20.60;99.90
26803;DHT22;14378;51.796;5.808;2022-10-30T10:11:44;20.70;99.90
26803;DHT22;14378;51.796;5.808;2022-10-30T10:13:55;20.90;99.90
26803;DHT22;14378;51.796;5.808;2022-10-30T10:16:11;20.90;99.90
26803;DHT22;14378;51.796;5.808;2022-10-30T10:18:22;21.10;99.90
26803;DHT22;14378;51.796;5.808;2022-10-30T10:20:34;21.20;99.90
26803;DHT22;14378;51.796;5.808;2022-10-30T10:22:41;21.40;99.90
26803;DHT22;14378;51.796;5.808;2022-10-30T10:24:43;21.60;99.90
26803;DHT22;14378;51.796;5.808;2022-10-30T10:27:37;21.70;99.90
26803;DHT22;14378;51.796;5.808;2022-10-30T10:30:09;21.70;99.90
26803;DHT22;14378;51.796;5.808;2022-10-30T10:37:30;21.60;99.90
26803;DHT22;14378;51.796;5.808;2022-10-30T10:41:47;21.60;99.90
26803;DHT22;14378;51.796;5.808;2022-10-30T10:49:25;21.60;99.90
26803;DHT22;14378;51.796;5.808;2022-10-30T10:51:37;21.70;99.90
26803;DHT22;14378;51.796;5.808;2022-10-30T10:53:58;21.70;99.90
26803;DHT22;14378;51.796;5.808;2022-10-30T10:56:02;21.90;99.90
26803;DHT22;14378;51.796;5.808;2022-10-30T10:58:37;22.00;99.90
26803;DHT22;14378;51.796;5.808;2022-10-30T11:00:42;22.10;99.90
26803;DHT22;14378;51.796;5.808;2022-10-30T11:05:33;22.40;99.90
26803;DHT22;14378;51.796;5.808;2022-10-30T11:07:46;22.50;99.90
26803;DHT22;14378;51.796;5.808;2022-10-30T11:09:51;22.70;99.90
26803;DHT22;14378;51.796;5.808;2022-10-30T11:11:54;22.80;99.90
26803;DHT22;14378;51.796;5.808;2022-10-30T11:14:00;22.90;99.90
26803;DHT22;14378;51.796;5.808;2022-10-30T11:16:33;23.10;99.90
26803;DHT22;14378;51.796;5.808;2022-10-30T11:18:37;23.30;99.90
26803;DHT22;14378;51.796;5.808;2022-10-30T11:22:51;23.60;99.90
26803;DHT22;14378;51.796;5.808;2022-10-30T11:24:52;23.80;99.90
26803;DHT22;14378;51.796;5.808;2022-10-30T11:26:57;23.80;99.90
26803;DHT22;14378;51.796;5.808;2022-10-30T11:29:27;24.00;99.90
26803;DHT22;14378;51.796;5.808;2022-10-30T11:31:57;24.20;99.90
26803;DHT22;14378;51.796;5.808;2022-10-30T11:33:54;24.20;99.90
26803;DHT22;14378;51.796;5.808;2022-10-30T11:36:07;24.40;99.90
26803;DHT22;14378;51.796;5.808;2022-10-30T11:38:19;24.40;99.90
26803;DHT22;14378;51.796;5.808;2022-10-30T11:40:22;24.40;99.90
26803;DHT22;14378;51.796;5.808;2022-10-30T11:42:23;24.40;99.90
26803;DHT22;14378;51.796;5.808;2022-10-30T11:44:47;24.50;99.90
26803;DHT22;14378;51.796;5.808;2022-10-30T11:46:49;24.50;99.90
26803;DHT22;14378;51.796;5.808;2022-10-30T11:48:50;24.60;99.90
26803;DHT22;14378;51.796;5.808;2022-10-30T11:51:01;24.70;99.90
26803;DHT22;14378;51.796;5.808;2022-10-30T11:53:28;24.80;99.90
26803;DHT22;14378;51.796;5.808;2022-10-30T11:55:45;24.90;99.90
26803;DHT22;14378;51.796;5.808;2022-10-30T11:57:55;24.90;99.90
26803;DHT22;14378;51.796;5.808;2022-10-30T11:59:57;25.10;99.90
26803;DHT22;14378;51.796;5.808;2022-10-30T12:02:23;25.20;99.90
26803;DHT22;14378;51.796;5.808;2022-10-30T12:04:26;25.30;99.90
26803;DHT22;14378;51.796;5.808;2022-10-30T12:06:31;25.30;99.90
26803;DHT22;14378;51.796;5.808;2022-10-30T12:08:32;25.40;99.90
26803;DHT22;14378;51.796;5.808;2022-10-30T12:10:38;25.40;99.90
26803;DHT22;14378;51.796;5.808;2022-10-30T12:12:43;25.40;99.90
26803;DHT22;14378;51.796;5.808;2022-10-30T12:14:46;25.40;99.90
26803;DHT22;14378;51.796;5.808;2022-10-30T12:16:49;25.50;99.90
26803;DHT22;14378;51.796;5.808;2022-10-30T12:19:06;25.40;99.90
26803;DHT22;14378;51.796;5.808;2022-10-30T12:21:18;25.30;99.90
26803;DHT22;14378;51.796;5.808;2022-10-30T12:23:24;25.30;99.90
26803;DHT22;14378;51.796;5.808;2022-10-30T12:25:29;25.20;99.90
26803;DHT22;14378;51.796;5.808;2022-10-30T12:27:35;25.10;99.90
26803;DHT22;14378;51.796;5.808;2022-10-30T12:32:06;24.80;99.90
26803;DHT22;14378;51.796;5.808;2022-10-30T12:34:39;24.80;99.90
26803;DHT22;14378;51.796;5.808;2022-10-30T12:36:50;24.70;99.90
26803;DHT22;14378;51.796;5.808;2022-10-30T12:38:57;24.60;99.90
26803;DHT22;14378;51.796;5.808;2022-10-30T12:41:19;24.60;99.90
26803;DHT22;14378;51.796;5.808;2022-10-30T12:43:27;24.50;99.90
26803;DHT22;14378;51.796;5.808;2022-10-30T12:45:33;24.50;99.90
26803;DHT22;14378;51.796;5.808;2022-10-30T12:48:24;24.50;99.90
26803;DHT22;14378;51.796;5.808;2022-10-30T12:50:28;24.50;99.90
26803;DHT22;14378;51.796;5.808;2022-10-30T12:52:40;24.40;99.90
26803;DHT22;14378;51.796;5.808;2022-10-30T12:55:15;24.40;99.90
26803;DHT22;14378;51.796;5.808;2022-10-30T12:57:24;24.30;99.90
26803;DHT22;14378;51.796;5.808;2022-10-30T13:01:46;24.10;99.90
26803;DHT22;14378;51.796;5.808;2022-10-30T13:03:55;24.00;99.90
26803;DHT22;14378;51.796;5.808;2022-10-30T13:06:24;24.00;99.90
26803;DHT22;14378;51.796;5.808;2022-10-30T13:08:33;23.80;99.90
26803;DHT22;14378;51.796;5.808;2022-10-30T13:10:43;23.80;99.90
26803;DHT22;14378;51.796;5.808;2022-10-30T13:12:47;23.80;99.90
26803;DHT22;14378;51.796;5.808;2022-10-30T13:14:56;23.80;99.90
26803;DHT22;14378;51.796;5.808;2022-10-30T13:17:01;23.80;99.90
26803;DHT22;14378;51.796;5.808;2022-10-30T13:19:04;23.80;99.90
26803;DHT22;14378;51.796;5.808;2022-10-30T13:21:47;23.70;99.90
26803;DHT22;14378;51.796;5.808;2022-10-30T13:26:06;23.60;99.90
26803;DHT22;14378;51.796;5.808;2022-10-30T13:28:46;23.60;99.90
26803;DHT22;14378;51.796;5.808;2022-10-30T13:31:05;23.50;99.90
26803;DHT22;14378;51.796;5.808;2022-10-30T13:33:43;23.50;99.90
26803;DHT22;14378;51.796;5.808;2022-10-30T13:36:15;23.50;99.90
26803;DHT22;14378;51.796;5.808;2022-10-30T13:38:53;23.60;99.90
26803;DHT22;14378;51.796;5.808;2022-10-30T13:41:37;23.60;99.90
26803;DHT22;14378;51.796;5.808;2022-10-30T13:53:10;23.60;99.90
26803;DHT22;14378;51.796;5.808;2022-10-30T13:55:33;23.60;99.90
26803;DHT22;14378;51.796;5.808;2022-10-30T14:00:22;23.50;99.90
26803;DHT22;14378;51.796;5.808;2022-10-30T14:10:55;23.10;99.90
26803;DHT22;14378;51.796;5.808;2022-10-30T14:15:04;23.00;99.90
26803;DHT22;14378;51.796;5.808;2022-10-30T14:17:15;22.90;99.90
26803;DHT22;14378;51.796;5.808;2022-10-30T14:19:20;22.80;99.90
26803;DHT22;14378;51.796;5.808;2022-10-30T14:21:40;22.80;99.90
26803;DHT22;14378;51.796;5.808;2022-10-30T14:23:43;22.70;99.90
26803;DHT22;14378;51.796;5.808;2022-10-30T14:26:11;22.60;99.90
26803;DHT22;14378;51.796;5.808;2022-10-30T14:28:19;22.60;99.90
26803;DHT22;14378;51.796;5.808;2022-10-30T14:30:26;22.50;99.90
26803;DHT22;14378;51.796;5.808;2022-10-30T14:32:34;22.50;99.90
26803;DHT22;14378;51.796;5.808;2022-10-30T14:36:55;22.40;99.90
26803;DHT22;14378;51.796;5.808;2022-10-30T14:41:21;22.30;99.90
26803;DHT22;14378;51.796;5.808;2022-10-30T14:48:56;22.10;99.90
26803;DHT22;14378;51.796;5.808;2022-10-30T14:51:04;22.10;99.90
26803;DHT22;14378;51.796;5.808;2022-10-30T14:55:49;22.00;99.90
26803;DHT22;14378;51.796;5.808;2022-10-30T14:58:14;22.00;99.90
26803;DHT22;14378;51.796;5.808;2022-10-30T15:00:40;22.00;99.90
26803;DHT22;14378;51.796;5.808;2022-10-30T15:07:48;21.90;99.90
26803;DHT22;14378;51.796;5.808;2022-10-30T15:10:13;21.80;99.90
26803;DHT22;14378;51.796;5.808;2022-10-30T15:14:45;21.80;99.90
26803;DHT22;14378;51.796;5.808;2022-10-30T15:16:48;21.80;99.90
26803;DHT22;14378;51.796;5.808;2022-10-30T15:18:58;21.70;99.90
26803;DHT22;14378;51.796;5.808;2022-10-30T15:21:06;21.70;99.90
26803;DHT22;14378;51.796;5.808;2022-10-30T15:23:13;21.60;99.90
26803;DHT22;14378;51.796;5.808;2022-10-30T15:25:20;21.60;99.90
26803;DHT22;14378;51.796;5.808;2022-10-30T15:27:24;21.60;99.90
26803;DHT22;14378;51.796;5.808;2022-10-30T15:29:34;21.50;99.90
26803;DHT22;14378;51.796;5.808;2022-10-30T15:31:38;21.40;99.90
26803;DHT22;14378;51.796;5.808;2022-10-30T15:33:40;21.40;99.90
26803;DHT22;14378;51.796;5.808;2022-10-30T15:35:46;21.30;99.90
26803;DHT22;14378;51.796;5.808;2022-10-30T15:38:02;21.30;99.90